Time;durP1;ratioP1;P1;durP2;ratioP2;P2;SDS_P1;SDS_P2;PMS_P1;PMS_P2;Temp;Humidity;BMP_temperature;BMP_pressure;BME280_temperature;BME280_humidity;BME280_pressure;Samples;Min_cycle;Max_cycle;Signal;HPM_P1;HPM_P2
2022/03/30 00:00:47;;;;;;;0.20;0.20;;;;;;;23.33;6.16;99102.84;5097074;28;20040;-74
2022/03/30 00:03:13;;;;;;;0.20;0.20;;;;;;;23.31;6.16;99099.63;5097756;28;20043;-73
2022/03/30 00:05:38;;;;;;;0.20;0.20;;;;;;;23.31;6.21;99102.34;5097121;28;20096;-75
2022/03/30 00:08:04;;;;;;;0.30;0.30;;;;;;;23.21;6.23;99076.09;5092978;28;20025;-74
2022/03/30 00:10:31;;;;;;;0.22;0.22;;;;;;;23.29;6.21;99092.88;5089912;28;20025;-75
2022/03/30 00:12:56;;;;;;;0.20;0.20;;;;;;;23.27;6.39;99090.47;5087176;28;20035;-75
2022/03/30 00:15:24;;;;;;;0.20;0.20;;;;;;;23.27;6.48;99090.47;5089299;28;20020;-75
2022/03/30 00:17:49;;;;;;;0.22;0.22;;;;;;;23.28;6.50;99089.31;5086845;28;20028;-74
2022/03/30 00:20:14;;;;;;;0.20;0.20;;;;;;;23.28;6.30;99100.22;5086721;28;20033;-74
2022/03/30 00:22:40;;;;;;;0.20;0.20;;;;;;;23.27;6.40;99086.91;5077821;28;20048;-74
2022/03/30 00:25:10;;;;;;;0.22;0.22;;;;;;;23.28;6.35;99086.59;5077252;28;20032;-74
2022/03/30 00:27:35;;;;;;;0.20;0.20;;;;;;;23.24;6.42;99088.34;5078818;28;20028;-75
2022/03/30 00:30:01;;;;;;;0.30;0.30;;;;;;;23.23;6.54;99083.97;5076881;28;20410;-75
2022/03/30 00:32:26;;;;;;;0.22;0.20;;;;;;;23.24;6.43;99080.16;5074307;28;20020;-75
2022/03/30 00:34:52;;;;;;;0.20;0.20;;;;;;;23.25;6.48;99082.59;5073691;28;20371;-74
2022/03/30 00:37:17;;;;;;;0.30;0.30;;;;;;;23.25;6.40;99084.50;5073639;28;20111;-74
2022/03/30 00:39:43;;;;;;;0.20;0.20;;;;;;;23.25;6.61;99081.78;5077834;28;20025;-74
2022/03/30 00:42:19;;;;;;;0.20;0.20;;;;;;;23.23;6.59;99083.97;5076595;28;20382;-74
2022/03/30 00:44:46;;;;;;;0.20;0.20;;;;;;;23.23;6.54;99078.53;5085609;28;20020;-74
2022/03/30 00:47:15;;;;;;;0.20;0.20;;;;;;;23.23;6.34;99081.25;5097982;28;20043;-75
2022/03/30 00:49:41;;;;;;;0.15;0.15;;;;;;;23.22;6.60;99080.47;5096907;28;20028;-74
2022/03/30 00:52:07;;;;;;;0.28;0.28;;;;;;;23.21;6.50;99080.75;5097669;28;20419;-75
2022/03/30 00:54:33;;;;;;;0.28;0.28;;;;;;;23.22;6.50;99076.94;5098234;28;20028;-74
2022/03/30 00:56:58;;;;;;;0.20;0.20;;;;;;;23.24;6.44;99069.25;5096061;28;20032;-74
2022/03/30 00:59:24;;;;;;;0.25;0.25;;;;;;;23.24;6.56;99069.25;5096379;28;20377;-75
2022/03/30 01:01:49;;;;;;;0.30;0.30;;;;;;;23.21;6.70;99064.41;5097578;28;20365;-75
2022/03/30 01:04:15;;;;;;;0.20;0.20;;;;;;;23.24;6.61;99069.25;5095965;28;20042;-74
2022/03/30 01:06:40;;;;;;;0.20;0.20;;;;;;;23.23;6.73;99064.91;5097593;28;20047;-74
2022/03/30 01:09:05;;;;;;;0.20;0.20;;;;;;;23.23;6.57;99067.63;5097560;28;20384;-74
2022/03/30 01:11:31;;;;;;;0.30;0.30;;;;;;;23.21;6.77;99064.41;5097217;28;20354;-74
2022/03/30 01:13:56;;;;;;;0.20;0.20;;;;;;;23.20;6.93;99057.34;5095730;28;20424;-75
2022/03/30 01:16:23;;;;;;;0.30;0.30;;;;;;;23.20;6.73;99058.16;5097439;28;20024;-75
2022/03/30 01:18:49;;;;;;;0.20;0.20;;;;;;;23.20;6.89;99051.91;5097339;28;20024;-74
2022/03/30 01:21:16;;;;;;;0.30;0.30;;;;;;;23.20;7.09;99052.72;5096975;28;20105;-74
2022/03/30 01:23:42;;;;;;;0.20;0.20;;;;;;;23.20;7.16;99051.91;5097257;28;20103;-75
2022/03/30 01:26:08;;;;;;;0.20;0.20;;;;;;;23.21;7.01;99045.31;5096801;28;20060;-75
2022/03/30 01:28:34;;;;;;;0.20;0.20;;;;;;;23.18;7.32;99035.03;5096770;28;20053;-74
2022/03/30 01:33:44;;;;;;;0.20;0.20;;;;;;;23.14;7.32;99029.38;5097010;28;20443;-74
2022/03/30 01:36:10;;;;;;;0.40;0.25;;;;;;;23.17;7.40;99036.97;5096676;28;20028;-74
2022/03/30 01:38:36;;;;;;;0.20;0.20;;;;;;;23.17;7.49;99036.97;5096906;28;20081;-75
2022/03/30 01:41:01;;;;;;;0.25;0.25;;;;;;;23.18;7.39;99041.31;5096788;28;20024;-75
2022/03/30 01:43:28;;;;;;;0.20;0.20;;;;;;;23.17;7.59;99036.16;5096740;28;20031;-75
2022/03/30 01:45:54;;;;;;;0.20;0.20;;;;;;;23.17;7.42;99036.16;5079675;28;20021;-74
2022/03/30 01:48:19;;;;;;;0.30;0.30;;;;;;;23.17;7.65;99038.88;5076279;28;20016;-75
2022/03/30 01:50:45;;;;;;;0.20;0.20;;;;;;;23.16;7.68;99029.09;5074296;28;20052;-75
2022/03/30 01:53:10;;;;;;;0.20;0.20;;;;;;;23.19;7.54;99033.94;5076074;28;20020;-74
2022/03/30 01:55:35;;;;;;;0.20;0.20;;;;;;;23.15;7.62;99032.94;5076211;28;20021;-74
2022/03/30 01:58:02;;;;;;;0.22;0.22;;;;;;;23.16;7.67;99026.34;5076384;28;20093;-75
2022/03/30 02:00:27;;;;;;;0.20;0.20;;;;;;;23.13;7.69;99033.25;5075804;28;20024;-75
2022/03/30 02:02:53;;;;;;;0.20;0.20;;;;;;;23.14;7.92;99034.03;5075898;28;20066;-75
2022/03/30 02:05:18;;;;;;;0.28;0.28;;;;;;;23.16;7.80;99029.09;5075701;28;20123;-74
2022/03/30 02:07:44;;;;;;;0.20;0.20;;;;;;;23.14;7.76;99026.66;5075867;28;20050;-74
2022/03/30 02:10:09;;;;;;;0.22;0.20;;;;;;;23.15;7.71;99022.03;5075899;28;20025;-75
2022/03/30 02:12:36;;;;;;;0.20;0.20;;;;;;;23.15;7.69;99032.94;5075754;28;20029;-74
2022/03/30 02:15:01;;;;;;;0.20;0.20;;;;;;;23.14;7.93;99029.38;5075551;28;20021;-76
2022/03/30 02:17:27;;;;;;;0.20;0.20;;;;;;;23.15;7.95;99041.91;5075759;28;20028;-75
2022/03/30 02:19:55;;;;;;;0.20;0.20;;;;;;;23.15;7.69;99038.38;5075442;28;20104;-75
2022/03/30 02:22:21;;;;;;;0.20;0.20;;;;;;;23.13;7.95;99035.13;5075096;28;20056;-74
2022/03/30 02:24:48;;;;;;;0.20;0.20;;;;;;;23.13;7.87;99030.50;5075807;28;20370;-74
2022/03/30 02:27:13;;;;;;;0.20;0.20;;;;;;;23.14;7.79;99037.56;5075209;28;20382;-74
2022/03/30 02:29:39;;;;;;;0.20;0.20;;;;;;;23.14;7.96;99031.31;5075496;28;20020;-74
2022/03/30 02:32:05;;;;;;;0.28;0.25;;;;;;;23.12;7.88;99031.63;5075438;28;20474;-74
2022/03/30 02:34:31;;;;;;;0.20;0.20;;;;;;;23.12;7.87;99022.63;5075413;28;20093;-75
2022/03/30 02:36:56;;;;;;;0.20;0.20;;;;;;;23.13;7.75;99032.41;5075464;28;20462;-74
2022/03/30 02:39:21;;;;;;;0.15;0.15;;;;;;;23.14;7.94;99028.59;5075379;28;20413;-74
2022/03/30 02:41:47;;;;;;;0.25;0.20;;;;;;;23.14;7.74;99034.03;5075276;28;20477;-75
2022/03/30 02:44:13;;;;;;;0.20;0.20;;;;;;;23.13;7.85;99016.06;5076854;28;20021;-75
2022/03/30 02:46:39;;;;;;;0.20;0.20;;;;;;;23.12;7.94;99028.88;5095136;28;20485;-75
2022/03/30 02:49:04;;;;;;;0.20;0.20;;;;;;;23.14;7.86;99021.22;5095677;28;20055;-76
2022/03/30 02:51:30;;;;;;;0.20;0.20;;;;;;;23.12;7.82;99019.91;5095431;28;20020;-75
2022/03/30 02:53:55;;;;;;;0.20;0.20;;;;;;;23.13;7.85;99024.22;5095366;28;20035;-75
2022/03/30 02:56:21;;;;;;;0.20;0.20;;;;;;;23.10;7.80;99013.97;5095091;28;20031;-75
2022/03/30 02:58:46;;;;;;;0.20;0.20;;;;;;;23.10;7.82;99013.97;5095049;28;20031;-75
2022/03/30 03:01:11;;;;;;;0.30;0.20;;;;;;;23.10;7.82;99003.06;5094113;28;20024;-75
2022/03/30 03:03:37;;;;;;;0.20;0.20;;;;;;;22.85;8.01;99003.25;5095507;28;20028;-75
2022/03/30 03:06:04;;;;;;;0.20;0.20;;;;;;;23.03;8.09;99009.69;5094977;28;20044;-74
2022/03/30 03:08:29;;;;;;;1.02;0.25;;;;;;;23.11;7.89;99004.66;5095157;28;20048;-74
2022/03/30 03:10:54;;;;;;;0.30;0.30;;;;;;;23.18;7.69;99005.06;5096042;28;20024;-72
2022/03/30 03:13:20;;;;;;;0.30;0.20;;;;;;;23.05;7.86;98985.69;5095763;28;20016;-73
2022/03/30 03:15:46;;;;;;;0.20;0.20;;;;;;;23.26;7.90;99012.53;5096276;28;20031;-73
2022/03/30 03:18:12;;;;;;;0.30;0.30;;;;;;;23.22;7.95;99000.63;5077747;28;20040;-72
2022/03/30 03:20:41;;;;;;;0.28;0.20;;;;;;;23.00;8.19;99013.00;5095888;28;20104;-73
2022/03/30 03:23:06;;;;;;;1.65;0.20;;;;;;;23.22;8.07;99011.53;5093586;28;20537;-72
2022/03/30 03:25:33;;;;;;;1.85;0.20;;;;;;;23.28;8.17;99006.75;5093122;28;20134;-73
2022/03/30 03:28:01;;;;;;;1.52;0.20;;;;;;;23.35;7.86;99009.88;5093066;28;20032;-73
2022/03/30 03:30:27;;;;;;;0.20;0.20;;;;;;;23.43;7.93;99007.22;5076012;28;20040;-74
2022/03/30 03:32:53;;;;;;;2.67;2.47;;;;;;;23.51;8.34;99007.59;5093057;28;20036;-74
2022/03/30 03:35:19;;;;;;;0.70;0.70;;;;;;;23.61;8.09;99012.84;5092864;28;20028;-73
2022/03/30 03:37:47;;;;;;;0.47;0.47;;;;;;;23.72;8.09;99016.16;5092856;28;20110;-73
2022/03/30 03:40:12;;;;;;;0.30;0.30;;;;;;;23.81;8.06;99006.13;5092577;28;20024;-73
2022/03/30 03:42:38;;;;;;;0.22;0.20;;;;;;;23.86;7.67;99014.19;5092526;28;20051;-73
2022/03/30 03:45:05;;;;;;;0.30;0.30;;;;;;;23.85;7.94;99011.78;5084814;28;20025;-73
2022/03/30 03:47:30;;;;;;;0.50;0.30;;;;;;;23.85;8.04;99009.03;5071875;28;20099;-73
2022/03/30 03:49:56;;;;;;;0.20;0.20;;;;;;;23.90;7.81;99019.84;5071993;28;20427;-72
2022/03/30 03:52:21;;;;;;;0.30;0.30;;;;;;;23.87;7.65;99015.81;5071557;28;20020;-73
2022/03/30 03:54:47;;;;;;;0.13;0.13;;;;;;;23.90;7.75;99020.63;5073274;28;20537;-72
2022/03/30 03:57:12;;;;;;;0.30;0.30;;;;;;;23.90;7.67;99020.63;5073963;28;20436;-73
2022/03/30 03:59:37;;;;;;;0.20;0.20;;;;;;;23.78;7.92;99018.47;5073607;28;20028;-73
2022/03/30 04:02:04;;;;;;;0.22;0.22;;;;;;;23.94;7.97;99016.19;5073805;28;20074;-78
2022/03/30 04:04:30;;;;;;;0.20;0.20;;;;;;;24.22;7.81;99024.25;5088678;28;20077;-78
2022/03/30 04:06:56;;;;;;;0.30;0.30;;;;;;;24.26;7.78;99017.03;5073534;28;20033;-79
2022/03/30 04:09:21;;;;;;;0.35;0.30;;;;;;;24.19;7.75;99033.84;5073528;28;20427;-78
2022/03/30 04:11:49;;;;;;;0.50;0.30;;;;;;;24.38;7.66;99030.09;5073796;28;20017;-78
2022/03/30 04:14:18;;;;;;;0.30;0.20;;;;;;;24.58;7.59;99033.44;5073375;28;20028;-79
2022/03/30 04:16:43;;;;;;;0.30;0.30;;;;;;;24.71;7.61;99022.41;5073934;28;20033;-79
2022/03/30 04:19:09;;;;;;;0.40;0.32;;;;;;;24.67;7.46;99020.66;5073543;28;20397;-78
2022/03/30 04:21:34;;;;;;;0.35;0.35;;;;;;;24.72;7.58;99024.03;5073385;28;20048;-79
2022/03/30 04:24:01;;;;;;;0.28;0.28;;;;;;;24.87;7.27;99030.19;5073224;28;20406;-78
2022/03/30 04:26:26;;;;;;;0.20;0.20;;;;;;;24.95;7.38;99029.44;5073376;28;20029;-78
2022/03/30 04:28:52;;;;;;;0.30;0.30;;;;;;;24.95;7.48;99034.91;5073514;28;20029;-78
2022/03/30 04:31:17;;;;;;;0.45;0.30;;;;;;;24.98;7.72;99036.19;5073350;28;20028;-79
2022/03/30 04:33:43;;;;;;;0.30;0.30;;;;;;;25.12;6.97;99036.88;5073844;28;20028;-79
2022/03/30 04:36:08;;;;;;;0.20;0.20;;;;;;;25.30;7.26;99035.84;5038387;28;20474;-79
2022/03/30 04:38:34;;;;;;;0.30;0.30;;;;;;;25.21;7.02;99032.22;5073379;28;20025;-79
2022/03/30 04:40:59;;;;;;;0.20;0.20;;;;;;;25.24;6.96;99037.06;5073187;28;20024;-78
2022/03/30 04:43:25;;;;;;;0.30;0.30;;;;;;;25.46;7.03;99035.38;5073569;28;20025;-78
2022/03/30 04:45:50;;;;;;;0.57;0.20;;;;;;;25.52;7.01;99030.56;5086215;28;20020;-79
2022/03/30 04:48:16;;;;;;;0.30;0.20;;;;;;;25.51;6.73;99023.47;5093623;28;20031;-79
2022/03/30 04:50:41;;;;;;;1.75;0.22;;;;;;;25.45;7.00;99034.56;5094882;28;20028;-79
2022/03/30 04:53:06;;;;;;;0.30;0.30;;;;;;;25.47;6.76;99031.50;5074479;28;20500;-79
2022/03/30 04:55:32;;;;;;;0.30;0.30;;;;;;;25.71;6.91;99031.03;5093653;28;20027;-79
2022/03/30 04:57:57;;;;;;;0.20;0.20;;;;;;;26.09;6.94;99032.34;5093851;28;20016;-79
2022/03/30 05:00:23;;;;;;;2.22;0.30;;;;;;;25.98;7.08;99029.94;5093755;28;20093;-79
2022/03/30 05:02:49;;;;;;;0.30;0.30;;;;;;;26.05;6.54;99032.19;5092959;28;20505;-79
2022/03/30 05:05:14;;;;;;;0.68;0.20;;;;;;;25.81;6.91;99024.44;5093716;28;20025;-78
2022/03/30 05:07:40;;;;;;;0.20;0.20;;;;;;;25.90;6.70;99027.97;5093196;28;20020;-79
2022/03/30 05:10:08;;;;;;;0.22;0.20;;;;;;;25.77;6.77;99029.75;5093462;28;20103;-78
2022/03/30 05:12:34;;;;;;;1.13;0.20;;;;;;;25.75;6.63;99028.47;5093341;28;20108;-78
2022/03/30 05:14:59;;;;;;;0.20;0.20;;;;;;;25.71;6.79;99030.25;5093006;28;20024;-79
2022/03/30 05:17:25;;;;;;;0.20;0.20;;;;;;;25.71;6.65;99035.72;5093819;28;20024;-79
2022/03/30 05:19:50;;;;;;;0.10;0.10;;;;;;;25.62;6.98;99033.78;5093699;28;20021;-79
2022/03/30 05:22:15;;;;;;;1.20;0.20;;;;;;;25.63;6.94;99040.03;5092808;28;20082;-80
2022/03/30 05:24:43;;;;;;;3.50;0.30;;;;;;;25.53;7.11;99043.91;5104422;28;20040;-79
2022/03/30 05:27:09;;;;;;;1.20;0.30;;;;;;;25.83;7.15;99038.59;5104321;28;20103;-79
2022/03/30 05:29:36;;;;;;;0.52;0.30;;;;;;;25.74;7.43;99030.41;5107643;28;20024;-81
2022/03/30 05:32:02;;;;;;;2.63;0.40;;;;;;;25.54;7.77;99044.72;5100970;28;20020;-80
2022/03/30 05:34:29;;;;;;;2.05;0.30;;;;;;;25.42;7.67;99001.56;5104861;28;20023;-78
2022/03/30 05:36:54;;;;;;;1.75;0.28;;;;;;;25.61;7.40;98993.88;5102082;28;20073;-79
2022/03/30 05:39:21;;;;;;;2.55;0.30;;;;;;;25.79;7.22;99029.44;5099188;28;20020;-79
2022/03/30 05:41:46;;;;;;;1.10;0.30;;;;;;;25.97;7.62;99030.25;5099223;28;20028;-79
2022/03/30 05:44:12;;;;;;;2.97;0.60;;;;;;;25.85;7.50;99036.34;5097583;28;20020;-79
2022/03/30 05:46:37;;;;;;;2.08;0.40;;;;;;;26.05;7.45;99041.19;5081170;28;20021;-79
2022/03/30 05:49:03;;;;;;;2.38;0.40;;;;;;;25.95;7.58;99038.78;5058225;28;20043;-79
2022/03/30 05:51:30;;;;;;;0.50;0.20;;;;;;;25.92;7.33;99039.41;5078285;28;20085;-79
2022/03/30 05:53:55;;;;;;;1.75;0.30;;;;;;;25.86;7.49;99022.34;5078422;28;20079;-79
2022/03/30 05:57:00;;;;;;;0.63;0.20;;;;;;;26.10;7.27;99042.19;5082724;28;20048;-78
2022/03/30 05:59:07;;;;;;;1.08;0.28;;;;;;;26.14;7.35;99037.66;5082771;28;20044;-77
2022/03/30 06:01:34;;;;;;;0.50;0.50;;;;;;;26.29;7.53;99039.88;5080817;28;20101;-79
2022/03/30 06:03:59;;;;;;;0.70;0.38;;;;;;;26.25;7.68;99038.94;5079224;28;20136;-78
2022/03/30 06:06:25;;;;;;;1.05;0.60;;;;;;;26.30;7.59;99030.53;5082126;28;20023;-79
2022/03/30 06:08:50;;;;;;;0.73;0.40;;;;;;;26.63;7.30;99024.53;5066935;28;20374;-79
2022/03/30 06:11:16;;;;;;;0.63;0.40;;;;;;;26.41;7.57;99037.28;5081541;28;20032;-78
2022/03/30 06:13:41;;;;;;;0.82;0.20;;;;;;;26.48;7.42;99035.97;5079315;28;20040;-75
2022/03/30 06:16:10;;;;;;;1.63;0.30;;;;;;;26.85;7.10;99028.13;5078215;28;20331;-72
2022/03/30 06:18:35;;;;;;;1.65;0.60;;;;;;;26.57;7.21;98995.66;5081930;28;20123;-75
2022/03/30 06:21:01;;;;;;;2.92;0.50;;;;;;;26.47;7.41;98998.75;5044883;28;20435;-74
2022/03/30 06:23:27;;;;;;;0.50;0.40;;;;;;;26.81;7.25;99038.94;5080311;28;20419;-75
2022/03/30 06:25:53;;;;;;;0.30;0.30;;;;;;;26.77;7.41;99033.31;5080534;28;20017;-75
2022/03/30 06:28:22;;;;;;;0.55;0.35;;;;;;;26.68;7.41;99035.31;5081166;28;20025;-74
2022/03/30 06:30:48;;;;;;;0.90;0.32;;;;;;;26.30;7.68;98997.69;5078824;28;20089;-75
2022/03/30 06:33:14;;;;;;;1.60;0.30;;;;;;;26.51;7.50;99044.34;5080990;28;20110;-73
2022/03/30 06:35:39;;;;;;;1.10;0.30;;;;;;;26.40;7.61;99041.13;5060696;28;20126;-74
2022/03/30 06:38:07;;;;;;;1.75;0.30;;;;;;;26.32;7.67;99039.25;5080582;28;20043;-73
2022/03/30 06:40:33;;;;;;;1.90;0.30;;;;;;;26.25;7.51;99033.47;5079149;28;20035;-74
2022/03/30 06:43:00;;;;;;;0.30;0.20;;;;;;;26.17;7.63;99026.06;5081974;28;20086;-75
2022/03/30 06:45:26;;;;;;;1.55;0.50;;;;;;;26.22;7.92;99042.31;5091523;28;20032;-76
2022/03/30 06:47:52;;;;;;;2.22;1.42;;;;;;;26.19;7.64;99040.22;5107937;28;20056;-73
2022/03/30 06:50:19;;;;;;;3.10;2.40;;;;;;;26.16;7.77;99055.34;5110099;28;20042;-74
2022/03/30 06:52:46;;;;;;;7.20;4.13;;;;;;;26.12;8.00;99050.88;5110089;28;20040;-76
2022/03/30 06:55:14;;;;;;;14.02;6.40;;;;;;;26.11;7.92;99051.97;5100695;28;20107;-76
2022/03/30 06:57:40;;;;;;;14.45;7.72;;;;;;;25.96;8.00;99048.63;5097704;28;20129;-78
2022/03/30 07:00:08;;;;;;;12.10;6.75;;;;;;;25.96;8.14;99047.81;5079866;28;20032;-78
2022/03/30 07:02:34;;;;;;;9.45;5.05;;;;;;;25.98;8.05;99049.09;5101954;28;20035;-79
2022/03/30 07:05:01;;;;;;;9.48;4.28;;;;;;;25.95;7.98;99049.75;5098890;28;20024;-79
2022/03/30 07:10:17;;;;;;;7.97;3.53;;;;;;;25.91;7.95;99023.31;5098249;28;20390;-77
2022/03/30 07:12:46;;;;;;;5.50;2.92;;;;;;;25.91;8.42;99045.22;5099269;28;20036;-78
2022/03/30 07:15:13;;;;;;;6.63;2.60;;;;;;;25.85;8.25;99041.81;5067630;28;20032;-79
2022/03/30 07:17:49;;;;;;;3.58;2.00;;;;;;;25.81;8.56;99054.53;5106871;28;20085;-78
2022/03/30 07:20:15;;;;;;;4.55;2.08;;;;;;;25.84;8.51;99045.69;5098404;28;20040;-79
2022/03/30 07:22:41;;;;;;;2.92;1.88;;;;;;;25.80;8.27;99050.19;5098638;28;20084;-75
2022/03/30 07:25:08;;;;;;;2.90;1.65;;;;;;;25.78;8.32;99041.50;5099108;28;20051;-74
2022/03/30 07:27:39;;;;;;;3.60;1.65;;;;;;;25.82;8.08;99053.44;5106316;28;20469;-75
2022/03/30 07:30:06;;;;;;;2.08;1.20;;;;;;;25.73;8.51;99050.66;5101794;28;20004;-74
2022/03/30 07:32:32;;;;;;;4.70;1.40;;;;;;;25.77;8.58;99048.91;5095845;28;20064;-75
2022/03/30 07:34:58;;;;;;;1.83;0.93;;;;;;;25.81;8.84;99049.88;5081706;28;20085;-76
2022/03/30 07:37:23;;;;;;;3.20;0.95;;;;;;;25.73;8.70;99038.94;5080499;28;20028;-75
2022/03/30 07:39:49;;;;;;;1.33;0.90;;;;;;;25.78;8.76;99046.97;5097706;28;20024;-75
2022/03/30 07:42:14;;;;;;;1.30;0.90;;;;;;;25.77;8.51;99050.84;5097490;28;20064;-75
2022/03/30 07:44:39;;;;;;;0.88;0.57;;;;;;;25.80;8.90;99055.66;5096022;28;20096;-75
2022/03/30 07:47:05;;;;;;;2.22;0.90;;;;;;;25.75;8.77;99053.09;5073559;28;20032;-74
2022/03/30 07:49:35;;;;;;;0.98;0.75;;;;;;;25.81;8.60;99062.75;5056345;28;20425;-76
2022/03/30 07:52:03;;;;;;;1.67;0.90;;;;;;;25.78;8.57;99058.72;5055521;28;20032;-75
2022/03/30 07:54:29;;;;;;;1.23;0.77;;;;;;;25.74;8.79;99063.25;5056109;28;20079;-77
2022/03/30 07:56:55;;;;;;;0.80;0.50;;;;;;;25.43;8.80;99072.38;5074116;28;20028;-75
2022/03/30 07:59:20;;;;;;;0.90;0.55;;;;;;;25.49;8.76;99073.00;5074686;28;20116;-75
2022/03/30 08:01:46;;;;;;;0.82;0.50;;;;;;;25.61;8.91;99070.47;5058475;28;20037;-74
2022/03/30 08:04:11;;;;;;;4.45;1.05;;;;;;;25.64;8.90;99072.56;5074257;28;20028;-76
2022/03/30 08:06:37;;;;;;;5.60;2.38;;;;;;;25.64;8.79;99075.28;5074164;28;20028;-76
2022/03/30 08:09:03;;;;;;;8.70;4.15;;;;;;;25.64;8.87;99075.28;5074964;28;20020;-76
2022/03/30 08:11:29;;;;;;;6.03;2.67;;;;;;;25.53;8.81;99078.66;5072816;28;20450;-76
2022/03/30 08:13:56;;;;;;;5.13;2.60;;;;;;;25.35;9.19;99075.09;5074686;28;20028;-75
2022/03/30 08:16:22;;;;;;;5.47;2.63;;;;;;;25.47;9.01;99070.63;5074244;28;20106;-74
2022/03/30 08:18:47;;;;;;;5.65;2.30;;;;;;;25.56;8.92;99070.63;5074169;28;20462;-74
2022/03/30 08:23:57;;;;;;;1.58;1.13;;;;;;;25.59;9.03;99072.69;5074478;28;20038;-74
2022/03/30 08:26:23;;;;;;;1.77;1.20;;;;;;;25.61;8.84;99081.41;5075748;28;20028;-74
2022/03/30 08:28:49;;;;;;;1.80;0.93;;;;;;;25.61;8.88;99075.94;5072997;28;20033;-74
2022/03/30 08:31:14;;;;;;;1.33;0.68;;;;;;;25.58;8.93;99065.63;5074089;28;20023;-74
2022/03/30 08:33:39;;;;;;;1.80;0.88;;;;;;;25.61;8.77;99075.94;5074935;28;20102;-74
2022/03/30 08:36:07;;;;;;;1.30;0.60;;;;;;;25.60;8.93;99079.00;5074039;28;20032;-73
2022/03/30 08:38:32;;;;;;;0.60;0.60;;;;;;;25.57;8.80;99066.75;5074012;28;20029;-73
2022/03/30 08:40:58;;;;;;;1.27;0.55;;;;;;;25.61;8.99;99081.41;5074039;28;20414;-73
2022/03/30 08:43:26;;;;;;;0.85;0.50;;;;;;;25.57;8.85;99060.50;5056049;28;20033;-73
2022/03/30 08:45:51;;;;;;;0.52;0.40;;;;;;;25.54;9.11;99075.59;5079976;28;20028;-73
2022/03/30 08:48:17;;;;;;;0.47;0.45;;;;;;;25.59;8.92;99072.69;5098494;28;20355;-76
2022/03/30 08:50:44;;;;;;;0.70;0.40;;;;;;;25.54;9.00;99070.13;5100186;28;20466;-75
2022/03/30 08:53:09;;;;;;;0.85;0.55;;;;;;;25.58;8.96;99075.78;5095944;28;20064;-75
2022/03/30 08:55:35;;;;;;;0.30;0.30;;;;;;;25.59;8.87;99077.38;5077119;28;20051;-75
2022/03/30 08:58:00;;;;;;;0.60;0.40;;;;;;;25.61;9.07;99086.06;5097661;28;20078;-74
2022/03/30 09:00:26;;;;;;;0.38;0.38;;;;;;;25.61;8.92;99072.38;5099396;28;20028;-75
2022/03/30 09:02:58;;;;;;;2.05;0.50;;;;;;;25.32;9.19;99070.25;5102427;28;20020;-76
2022/03/30 09:05:27;;;;;;;0.45;0.40;;;;;;;25.54;8.91;99081.06;5100809;28;20498;-74
2022/03/30 09:08:12;;;;;;;0.63;0.40;;;;;;;25.61;9.21;99086.06;5100604;28;20025;-77
2022/03/30 09:10:39;;;;;;;0.30;0.30;;;;;;;25.47;9.06;99070.63;5098120;28;20040;-74
2022/03/30 09:13:05;;;;;;;0.32;0.20;;;;;;;25.59;9.03;99077.38;5100414;28;20391;-74
2022/03/30 09:15:33;;;;;;;0.28;0.28;;;;;;;25.59;9.05;99077.38;5099876;28;20024;-74
2022/03/30 09:18:03;;;;;;;0.30;0.30;;;;;;;25.62;8.93;99082.22;5099658;28;20369;-74
2022/03/30 09:20:32;;;;;;;0.90;0.32;;;;;;;25.56;9.28;99084.31;5100727;28;20092;-79
2022/03/30 09:22:58;;;;;;;0.30;0.30;;;;;;;25.58;9.23;99086.72;5100356;28;20375;-76
2022/03/30 09:25:30;;;;;;;0.60;0.32;;;;;;;25.66;9.15;99078.53;5098474;28;20066;-74
2022/03/30 09:27:56;;;;;;;0.32;0.30;;;;;;;25.62;9.26;99079.47;5096955;28;20412;-75
2022/03/30 09:30:22;;;;;;;0.77;0.40;;;;;;;25.68;9.29;99081.75;5097479;28;20115;-76
2022/03/30 09:32:49;;;;;;;1.17;0.22;;;;;;;25.71;9.20;99079.50;5098997;28;20031;-76
2022/03/30 09:35:27;;;;;;;0.43;0.20;;;;;;;25.70;9.43;99077.88;5098717;28;20062;-77
2022/03/30 09:38:11;;;;;;;0.40;0.30;;;;;;;25.74;9.17;99076.91;5097539;28;20054;-75
2022/03/30 09:40:41;;;;;;;0.20;0.20;;;;;;;25.76;8.98;99082.06;5102425;28;20043;-74
2022/03/30 09:43:22;;;;;;;0.52;0.30;;;;;;;25.76;9.20;99082.06;5097471;28;20467;-74
2022/03/30 09:45:49;;;;;;;0.63;0.40;;;;;;;25.74;9.11;99076.13;5057764;28;20059;-75
2022/03/30 09:48:24;;;;;;;3.60;0.60;;;;;;;25.74;9.29;99070.66;5079661;28;20032;-74
2022/03/30 09:50:51;;;;;;;1.02;0.50;;;;;;;25.71;9.41;99085.75;5080855;28;20025;-72
2022/03/30 09:53:18;;;;;;;0.85;0.47;;;;;;;25.51;9.44;99076.25;5077352;28;20054;-73
2022/03/30 09:56:11;;;;;;;0.40;0.32;;;;;;;25.63;9.56;99079.16;5076272;28;20126;-73
2022/03/30 09:58:37;;;;;;;1.30;0.47;;;;;;;25.68;9.10;99080.91;5075874;28;20119;-71
2022/03/30 10:01:17;;;;;;;0.38;0.20;;;;;;;25.47;9.32;99072.53;5077090;28;20095;-73
2022/03/30 10:04:02;;;;;;;2.08;0.20;;;;;;;25.61;9.12;99081.41;5076075;28;20111;-73
2022/03/30 10:06:34;;;;;;;1.65;0.32;;;;;;;25.65;8.80;99079.66;5078936;28;20016;-74
2022/03/30 10:09:00;;;;;;;0.43;0.30;;;;;;;25.65;8.77;99082.38;5078792;28;20071;-73
2022/03/30 10:11:27;;;;;;;0.30;0.30;;;;;;;25.59;9.04;99072.69;5077869;28;20466;-75
2022/03/30 10:14:00;;;;;;;0.50;0.35;;;;;;;25.66;8.76;99086.75;5078644;28;20047;-76
2022/03/30 10:16:27;;;;;;;0.35;0.30;;;;;;;25.68;9.03;99081.75;5078913;28;20028;-74
2022/03/30 10:18:53;;;;;;;0.28;0.28;;;;;;;25.68;8.78;99075.44;5080077;28;20033;-75
2022/03/30 10:21:36;;;;;;;0.80;0.30;;;;;;;25.66;8.98;99067.59;5080381;28;20051;-75
2022/03/30 10:24:39;;;;;;;0.88;0.20;;;;;;;25.77;9.24;99080.97;5080093;28;20048;-74
2022/03/30 10:27:20;;;;;;;0.55;0.50;;;;;;;25.66;8.96;99075.78;5077083;28;20032;-74
2022/03/30 10:29:53;;;;;;;0.30;0.30;;;;;;;25.49;9.00;99073.00;5074839;28;20119;-73
2022/03/30 10:32:21;;;;;;;1.80;0.27;;;;;;;25.56;9.42;99067.91;5081216;28;20093;-73
2022/03/30 10:35:05;;;;;;;0.30;0.30;;;;;;;25.56;9.25;99078.00;5081271;28;20739;-74
2022/03/30 10:37:34;;;;;;;0.35;0.20;;;;;;;25.66;9.17;99078.53;5081913;28;20098;-73
2022/03/30 10:40:03;;;;;;;5.05;0.50;;;;;;;25.69;8.90;99082.53;5083687;28;20024;-73
2022/03/30 10:42:47;;;;;;;5.85;1.60;;;;;;;25.67;9.04;99080.13;5082550;28;20024;-73
2022/03/30 10:45:33;;;;;;;9.18;2.05;;;;;;;25.64;9.21;99075.28;5084678;28;20036;-74
2022/03/30 10:48:16;;;;;;;5.80;1.65;;;;;;;25.62;9.03;99069.34;5059614;28;20047;-74
2022/03/30 10:50:49;;;;;;;4.65;1.50;;;;;;;25.64;9.05;99080.75;5059267;28;20029;-73
2022/03/30 10:53:33;;;;;;;9.18;1.70;;;;;;;25.77;8.92;99067.28;5063406;28;20494;-73
2022/03/30 10:56:18;;;;;;;5.60;1.80;;;;;;;25.74;8.88;99076.13;5061442;28;20033;-73
2022/03/30 10:58:49;;;;;;;;;;;;;;;25.99;8.98;99069.88;5063736;28;20028;-70
2022/03/30 11:01:24;;;;;;;3.95;1.50;;;;;;;25.78;9.04;99066.13;5063822;28;19909;-72
2022/03/30 11:04:18;;;;;;;3.38;1.30;;;;;;;25.80;8.90;99055.66;5061346;28;20032;-74
2022/03/30 11:07:08;;;;;;;3.33;1.20;;;;;;;25.73;8.70;99060.81;5062045;28;20029;-74
2022/03/30 11:09:35;;;;;;;3.28;0.90;;;;;;;25.72;8.71;99067.44;5059029;28;20033;-73
2022/03/30 11:12:05;;;;;;;1.38;0.80;;;;;;;25.68;8.64;99091.88;5062818;28;20037;-72
2022/03/30 11:14:44;;;;;;;2.47;0.85;;;;;;;25.71;8.76;99084.97;5064173;28;20041;-75
2022/03/30 11:17:29;;;;;;;2.33;0.68;;;;;;;25.75;8.51;99091.41;5070136;28;20021;-75
2022/03/30 11:19:55;;;;;;;;;;;;;;;25.99;8.67;99091.78;5073409;28;20105;-74
2022/03/30 11:22:32;;;;;;;1.17;0.60;;;;;;;25.84;9.00;99092.22;5069342;28;19951;-75
2022/03/30 11:25:10;;;;;;;1.48;0.50;;;;;;;25.80;9.16;99089.31;5071796;28;20082;-77
2022/03/30 11:27:36;;;;;;;3.70;0.57;;;;;;;25.72;9.03;99084.66;5067628;28;20040;-75
2022/03/30 11:30:08;;;;;;;0.50;0.40;;;;;;;25.75;9.27;99080.44;5061425;28;20029;-75
2022/03/30 11:32:38;;;;;;;1.30;0.50;;;;;;;25.74;9.21;99084.31;5060314;28;20124;-74
2022/03/30 11:35:10;;;;;;;0.40;0.40;;;;;;;25.75;9.22;99083.19;5065054;28;20079;-75
2022/03/30 11:38:14;;;;;;;0.40;0.40;;;;;;;25.80;9.41;99083.84;5066856;28;20075;-75
2022/03/30 11:40:41;;;;;;;0.40;0.40;;;;;;;25.80;9.56;99080.28;5027275;28;20034;-74
2022/03/30 11:43:07;;;;;;;0.63;0.40;;;;;;;25.76;9.53;99076.59;5023471;28;20081;-75
2022/03/30 11:45:33;;;;;;;0.65;0.30;;;;;;;25.75;9.08;99080.44;5020461;28;20041;-73
2022/03/30 11:48:03;;;;;;;0.88;0.30;;;;;;;25.67;9.11;99071.91;5038892;28;20033;-73
2022/03/30 11:50:45;;;;;;;0.45;0.32;;;;;;;25.63;9.13;99062.75;5040059;28;20034;-74
2022/03/30 11:53:15;;;;;;;0.93;0.40;;;;;;;25.75;9.31;99073.06;5028370;28;20148;-74